CLASSIFICA

GIRO DEL LAGO DI CAMPOTOSTO

corsa su strada 12km

DIVISIONI:
12KM     25KM     CLASSIFICA:   ASSOLUTA    M     F    
CATEGORIE:   TUTTE    |   SF   |   SF35   |   SF40   |   SF45   |   SF50   |   SF55   |   SM   |   SM35   |   SM40   |   SM45   |   SM50   |   SM55   |   SM60   |   SM65  
FILTRO:
  Atleta      Team        Pulisci       Atleti classificati 12KM: 75  

Cliccare sulle colonne per cambiare ordinamento Pagina:   | 1 | | 2 |
Azioni Pos. M/F Cat. P.Cat. Pett Naz Atleta Squadra Tempo Distacco in tempo Distacco in metri Min/Km
11SM5506BARILE ALESSANDROA.S.D. USA RUNNERS AVEZZANO00:43:24 00:00:00 0 00:03:37
22SM35068FEDERICI LUIGIATL. ABRUZZO L'AQUILA00:43:38 00:00:14 64 00:03:38
33SM350130ERCOLE ROBERTOASD ATLETICA ABRUZZO LAQUILA00:46:43 00:03:19 851 00:03:54
44SM55013FERNICOLA FRANCESCOASD ATLETICA ABRUZZO LAQUILA00:47:57 00:04:33 1.138 00:04:00
55SM45039BRACHETTA LEONARDO MARIAPODISTICA SOLIDARIETA00:48:07 00:04:43 1.176 00:04:01
66SM50163TRAVAGLINI MAUROGS PODISTICA PRENESTE00:48:25 00:05:01 1.243 00:04:02
77SM35119PRESTANZIO UGOASD BIKE 99 LAQUILONE00:48:51 00:05:27 1.338 00:04:04
88SM35233OLIVIERI LUCAFASHIONSPORT00:51:00 00:07:36 1.788 00:04:15
91SF40034BOSSARD SOULLARD AURELIE MARIE BERNADG.S. BANCARI ROMANI00:52:06 00:08:42 2.003 00:04:21
109SM136LISCIANI EOLOA.S.D. USA RUNNERS AVEZZANO00:52:27 00:09:03 2.070 00:04:22
1110SM270BOCCACCI MATTIAATL. ABRUZZO L'AQUILA00:52:28 00:09:04 2.073 00:04:22
1211SM50218SPONTASPONTA VALENTINOASD ATLETICA ABRUZZO LAQUILA00:52:44 00:09:20 2.123 00:04:24
1312SM55110BONANNI ROBERTOASD ATLETICA ABRUZZO LAQUILA00:52:46 00:09:22 2.130 00:04:24
1413SM45164TONANZI LORENZOG.S. POD. PRENESTE00:53:10 00:09:46 2.204 00:04:26
1514SM45238ARENA PIERGIORGIOPODISTICA SOLIDARIETA00:53:30 00:10:06 2.265 00:04:28
1615SM55248SCAMARCIO MARIANOPODISTICA SOLIDARIETA00:53:38 00:10:14 2.289 00:04:28
1716SM55375DI BARTOLOMEO DINOA.S.D. RUNNERS TORDINO00:54:08 00:10:44 2.379 00:04:31
1817SM40144GIORGI DAVIDPODISTICA SOLIDARIETA00:54:14 00:10:50 2.397 00:04:31
1918SM503402CAPULLI MASSIMORUNCARD00:54:28 00:11:04 2.438 00:04:32
2019SM316ROSA FEDERICOASD ATLETICA ABRUZZO LAQUILA00:54:32 00:11:08 2.449 00:04:33
2120SM45325MARINO MAURIZIOASD SEMPRE DI CORSA TEAM00:54:34 00:11:10 2.455 00:04:33
222SF40052WOLF STEFFI KORDULAPODISTICA SOLIDARIETA00:55:15 00:11:51 2.573 00:04:36
2321SM60169SFORNA GIUSEPPEASD ATLETICA ABRUZZO L'AQUILA00:55:21 00:11:57 2.590 00:04:37
243SF35053MARIANO BARBARAPRETUZI RUNNERS TERAMO00:55:49 00:12:25 2.669 00:04:39
2522SM35367CIAVOLA STEFANORUNCARD00:56:41 00:13:17 2.812 00:04:43
2623SM40226AGOSTINONI CLAUDIOCAFFARELLA RUNNERS00:56:53 00:13:29 2.844 00:04:44
274SF35024CIMMINO MONICAASD RUNNERS ELITE CECCANO00:57:05 00:13:41 2.876 00:04:45
285SF065RAMUNDI FRANCESCARUNNERS PESCARA00:57:23 00:13:59 2.924 00:04:47
296SF40111CIALFI DANIELAASD ATLETICA ABRUZZO LAQUILA00:57:48 00:14:24 2.989 00:04:49
3024SM40377NICOLAI ALESSANDROASD INIX SPORT00:58:23 00:14:59 3.079 00:04:52
3125SM45423MANCINI LUCAASD RUNNERS CHIETI00:58:33 00:15:09 3.105 00:04:53
327SF35166RICCI ALESSIAPRETUZI RUNNERS TERAMO00:59:01 00:15:37 3.175 00:04:55
3326SM35422DELLA FIGLIUOLA DOMENICOASD POD. NEW CASTLE CAST. VOM.00:59:10 00:15:46 3.197 00:04:56
3427SM50417RUSSO LUIGIASD ATLETICA ABRUZZO LAQUILA00:59:17 00:15:53 3.215 00:04:56
3528SM5544GRANITO ANTONGIULIOA.S.D. RINCORRO00:59:54 00:16:30 3.305 00:05:00
3629SM65172DI CARLO UGOASD ATLETICA ABRUZZO L'AQUILA01:00:54 00:17:30 3.448 00:05:05
3730SM60262DIANA GIANCARLOA.S.D. GO RUNNING01:01:04 00:17:40 3.471 00:05:05
3831SM60330FRIGERI ALESSANDROCAFFARELLA RUNNERS01:01:22 00:17:58 3.513 00:05:07
3932SM55529BARSI ROBERTOCAFFARELLA RUNNERS01:01:23 00:17:59 3.515 00:05:07
4033SM35531PELLOUX LUCACAFFARELLA RUNNERS01:02:40 00:19:16 3.689 00:05:13
4134SM60460SCAMARCIO ALFONSOPODISTICA SOLIDARIETA'01:03:11 00:19:47 3.757 00:05:16
428SF35250SOLTYKIEWICZ MALGORZATA BEATAPODISTICA SOLIDARIETA01:03:30 00:20:06 3.798 00:05:18
439SF4517DI FABIO ANATOLIAA.S.D. USA RUNNERS AVEZZANO01:03:43 00:20:19 3.826 00:05:19
4435SM45561PEZZOTTA STEFANOAMATORI VILLA PAMPHILI01:03:49 00:20:25 3.839 00:05:19
4536SM45632TAGLIAFERRI FABRIZIOCAFFARELLA RUNNERS01:03:57 00:20:33 3.856 00:05:20
4637SM40449SIMONELLI MIRKOPODISTICA SOLIDARIETA01:04:21 00:20:57 3.906 00:05:22
4710SF50176ANGELONI PATRIZIAA.S.D. RUNNERS TORDINO01:04:53 00:21:29 3.973 00:05:24
4838SM50559BRUNETTI MASSIMILIANOSPORT TEAM TRIGORIA01:05:13 00:21:49 4.014 00:05:26
4939SM45771CICCARELLI ROBERTOATL. ABRUZZO L'AQUILA01:05:16 00:21:52 4.020 00:05:26
5040SM5565MARIANI DANIELEA.S.D. RINCORRO01:05:30 00:22:06 4.048 00:05:28
5141SM6059AMICOZZI COSTANTINOASD ATLETICA ABRUZZO LAQUILA01:05:40 00:22:16 4.069 00:05:28
5242SM45858DI TIZIO WILLIAMRUNCARD01:05:49 00:22:25 4.087 00:05:29
5311SF121VECCHIO MARIA TERESAASD MEDITERRANEA01:08:00 00:24:36 4.341 00:05:40
5412SF212FERNICOLA ALESSIAASD ATLETICA ABRUZZO LAQUILA01:08:42 00:25:18 4.419 00:05:44
5513SF45273MARIANI SABRINARUNCARD01:09:21 00:25:57 4.490 00:05:47
5643SM45943DE ANGELIS FABRIZIOPODISTICA SOLIDARIETA01:11:22 00:27:58 4.702 00:05:57
5744SM65274ANICETI GIOVANNILBM SPORT TEAM01:12:01 00:28:37 4.768 00:06:00
5814SF50278PROVITINA DANIELAMARATHON CLUB ROMA01:12:28 00:29:04 4.813 00:06:02
5945SM60647PAOLACCI UBERTOPODISTICA SOLIDARIETA01:12:49 00:29:25 4.847 00:06:04
6015SF45314LEONARDIS ROBERTAASD ATLETICA ABRUZZO LAQUILA01:13:07 00:29:43 4.877 00:06:06
6116SF50335CORTINI PAOLAG.S. POD. PRENESTE01:13:27 00:30:03 4.909 00:06:07
6246SM65337CAMILLI BERNARDINOMARATHON ROMA CASTELFUSANO01:13:37 00:30:13 4.925 00:06:08
6317SF40255FASCIANI MONICARUNCARD01:14:15 00:30:51 4.985 00:06:11
6418SF45441CANDELORO GIORGIAPODISTICA SOLIDARIETA01:14:46 00:31:22 5.034 00:06:14
6547SM65440BUCCINI NELLOPODISTICA SOLIDARIETA01:14:46 00:31:22 5.034 00:06:14
6648SM55728ARGENTINO SERGIOCAFFARELLA RUNNERS01:14:47 00:31:23 5.035 00:06:14
6749SM65527ANTEI ALESSANDROCAFFARELLA RUNNERS01:15:08 00:31:44 5.068 00:06:16
6819SF55151VITALE VIVIANA MAURAPODISTICA SOLIDARIETA01:19:45 00:36:21 5.469 00:06:39
6950SM55845LOMBARDI ROBERTOPODISTICA SOLIDARIETA01:20:47 00:37:23 5.553 00:06:44
7020SF55220FRANCIOSI ANTONELLAASD MEDITERRANEA01:21:06 00:37:42 5.578 00:06:46
7151SM50646NIGRO ROBERTOPODISTICA SOLIDARIETA01:23:05 00:39:41 5.731 00:06:55
7221SF50442CIOTTI ALESSANDRAPODISTICA SOLIDARIETA01:25:43 00:42:19 5.924 00:07:09
7352SM656112CELESTE ANTONIOA.S.D. TOCCO RUNNER01:29:58 00:46:34 6.211 00:07:30
7453SM35654DE LUCIA DANIELERUNCARD01:31:22 00:47:58 6.299 00:07:37
7522SF55379CASALINI DANIELARUNCARD02:13:12 01:29:48 8.090 00:11:06
Righe per pagina::     TUTTE    |   30   |   50   |   100   Pagina:   | 1 | | 2 |